NKS9928 KPDX-KSMF
Flight info
| Callsign | NKS9928 |
|---|---|
| Flight time | 1h 7m |
| Altitude | 39000 |
| Route | HRMNS6 HYJOE LMT TUDOR2 |
| Aircraft | A321/M-SDE3FGHIRWY/LB1 |
Departure
| Time | 2026-05-07 07:50 |
|---|---|
| Airport | Portland International Airport (KPDX) |
Arrival
| Time | 2026-05-07 08:57 |
|---|---|
| Airport | Sacramento International Airport (KSMF) |
| Time | Latitude | Longitude | Altitude | Speed | Heading |
|---|---|---|---|---|---|
| 2026-05-07 07:31 | 45.59162 | -122.59519 | 31 ft | 0 kts | 195° |
| 2026-05-07 07:35 | 45.59171 | -122.59515 | 29 ft | 4 kts | 197° |
| 2026-05-07 07:35 | 45.59196 | -122.59501 | 29 ft | 4 kts | 204° |
| 2026-05-07 07:36 | 45.59214 | -122.59488 | 30 ft | 4 kts | 210° |
| 2026-05-07 07:36 | 45.59232 | -122.59475 | 30 ft | 4 kts | 154° |
| 2026-05-07 07:36 | 45.59246 | -122.59499 | 30 ft | 4 kts | 119° |
| 2026-05-07 07:36 | 45.59259 | -122.59532 | 29 ft | 2 kts | 119° |
| 2026-05-07 07:37 | 45.59260 | -122.59534 | 29 ft | 0 kts | 119° |
| 2026-05-07 07:45 | 45.59258 | -122.59529 | 30 ft | 3 kts | 119° |
| 2026-05-07 07:45 | 45.59237 | -122.59475 | 29 ft | 10 kts | 119° |
| 2026-05-07 07:45 | 45.59209 | -122.59369 | 31 ft | 13 kts | 95° |
| 2026-05-07 07:46 | 45.59210 | -122.59242 | 35 ft | 13 kts | 90° |
| 2026-05-07 07:46 | 45.59183 | -122.59121 | 37 ft | 14 kts | 120° |
| 2026-05-07 07:46 | 45.59127 | -122.58982 | 36 ft | 18 kts | 118° |
| 2026-05-07 07:46 | 45.59060 | -122.58807 | 35 ft | 22 kts | 118° |
| 2026-05-07 07:47 | 45.58977 | -122.58593 | 32 ft | 27 kts | 119° |
| 2026-05-07 07:47 | 45.58883 | -122.58351 | 33 ft | 25 kts | 119° |
| 2026-05-07 07:47 | 45.58826 | -122.58204 | 37 ft | 15 kts | 119° |
| 2026-05-07 07:47 | 45.58769 | -122.58058 | 37 ft | 18 kts | 119° |
| 2026-05-07 07:48 | 45.58703 | -122.57889 | 39 ft | 21 kts | 119° |
| 2026-05-07 07:48 | 45.58625 | -122.57689 | 34 ft | 26 kts | 119° |
| 2026-05-07 07:48 | 45.58533 | -122.57453 | 29 ft | 30 kts | 119° |
| 2026-05-07 07:48 | 45.58427 | -122.57179 | 30 ft | 33 kts | 119° |
| 2026-05-07 07:49 | 45.58323 | -122.56910 | 34 ft | 23 kts | 117° |
| 2026-05-07 07:49 | 45.58288 | -122.56819 | 35 ft | 15 kts | 118° |
| 2026-05-07 07:49 | 45.58303 | -122.56704 | 32 ft | 13 kts | 31° |
| 2026-05-07 07:49 | 45.58435 | -122.56884 | 31 ft | 61 kts | 299° |
| 2026-05-07 07:50 | 45.58650 | -122.57435 | 34 ft | 124 kts | 299° |
| 2026-05-07 07:50 | 45.59113 | -122.58627 | 649 ft | 143 kts | 300° |
| 2026-05-07 07:50 | 45.59577 | -122.59896 | 1632 ft | 148 kts | 299° |
| 2026-05-07 07:50 | 45.60084 | -122.61296 | 2380 ft | 170 kts | 299° |
| 2026-05-07 07:51 | 45.60666 | -122.62902 | 3032 ft | 194 kts | 297° |
| 2026-05-07 07:51 | 45.61303 | -122.64742 | 3697 ft | 218 kts | 290° |
| 2026-05-07 07:51 | 45.61731 | -122.66970 | 4421 ft | 248 kts | 288° |
| 2026-05-07 07:51 | 45.62519 | -122.69199 | 5766 ft | 257 kts | 300° |
| 2026-05-07 07:52 | 45.63436 | -122.71408 | 7347 ft | 259 kts | 300° |
| 2026-05-07 07:52 | 45.64355 | -122.73647 | 8908 ft | 261 kts | 299° |
| 2026-05-07 07:52 | 45.65261 | -122.75876 | 10355 ft | 263 kts | 299° |
| 2026-05-07 07:52 | 45.66184 | -122.78167 | 11630 ft | 266 kts | 297° |
| 2026-05-07 07:53 | 45.66808 | -122.80674 | 12834 ft | 270 kts | 282° |
| 2026-05-07 07:53 | 45.66887 | -122.83390 | 14057 ft | 277 kts | 266° |
| 2026-05-07 07:53 | 45.66426 | -122.86067 | 15094 ft | 284 kts | 257° |
| 2026-05-07 07:53 | 45.65784 | -122.88773 | 16122 ft | 292 kts | 250° |
| 2026-05-07 07:54 | 45.64493 | -122.91114 | 17101 ft | 313 kts | 224° |
| 2026-05-07 07:54 | 45.62428 | -122.92446 | 17813 ft | 347 kts | 198° |
| 2026-05-07 07:54 | 45.59899 | -122.92500 | 18290 ft | 379 kts | 178° |
| 2026-05-07 07:54 | 45.57267 | -122.91671 | 19022 ft | 393 kts | 168° |
| 2026-05-07 07:55 | 45.54673 | -122.90302 | 19848 ft | 404 kts | 156° |
| 2026-05-07 07:55 | 45.52354 | -122.88036 | 20681 ft | 413 kts | 143° |
| 2026-05-07 07:55 | 45.50071 | -122.85510 | 21531 ft | 415 kts | 147° |
| 2026-05-07 07:55 | 45.47662 | -122.83245 | 22344 ft | 416 kts | 151° |
| 2026-05-07 07:56 | 45.45153 | -122.81148 | 23118 ft | 418 kts | 153° |
| 2026-05-07 07:56 | 45.42597 | -122.79125 | 23864 ft | 422 kts | 154° |
| 2026-05-07 07:56 | 45.40008 | -122.77084 | 24492 ft | 426 kts | 153° |
| 2026-05-07 07:56 | 45.37452 | -122.75025 | 25085 ft | 430 kts | 153° |
| 2026-05-07 07:57 | 45.34848 | -122.72867 | 25683 ft | 435 kts | 152° |
| 2026-05-07 07:57 | 45.32237 | -122.70653 | 26258 ft | 439 kts | 151° |
| 2026-05-07 07:57 | 45.29610 | -122.68394 | 26820 ft | 443 kts | 151° |
| 2026-05-07 07:57 | 45.26957 | -122.66106 | 27358 ft | 448 kts | 151° |
| 2026-05-07 07:58 | 45.24271 | -122.63797 | 27902 ft | 452 kts | 151° |
| 2026-05-07 07:58 | 45.21562 | -122.61482 | 28442 ft | 456 kts | 151° |
| 2026-05-07 07:58 | 45.18825 | -122.59156 | 28977 ft | 460 kts | 151° |
| 2026-05-07 07:58 | 45.16084 | -122.56836 | 29484 ft | 464 kts | 151° |
| 2026-05-07 07:59 | 45.13294 | -122.54479 | 30001 ft | 468 kts | 151° |
| 2026-05-07 07:59 | 45.10498 | -122.52122 | 30472 ft | 472 kts | 151° |
| 2026-05-07 07:59 | 45.07657 | -122.49734 | 30906 ft | 476 kts | 151° |
| 2026-05-07 07:59 | 45.04787 | -122.47321 | 31354 ft | 479 kts | 151° |
| 2026-05-07 08:00 | 45.01917 | -122.44906 | 31892 ft | 479 kts | 151° |
| 2026-05-07 08:00 | 44.99058 | -122.42499 | 32536 ft | 477 kts | 151° |
| 2026-05-07 08:00 | 44.96241 | -122.40156 | 33148 ft | 474 kts | 154° |
| 2026-05-07 08:00 | 44.93250 | -122.38240 | 33757 ft | 470 kts | 163° |
| 2026-05-07 08:01 | 44.90155 | -122.36783 | 34328 ft | 469 kts | 165° |
| 2026-05-07 08:01 | 44.87065 | -122.35350 | 34839 ft | 468 kts | 165° |
| 2026-05-07 08:01 | 44.83964 | -122.33912 | 35351 ft | 467 kts | 165° |
| 2026-05-07 08:01 | 44.80877 | -122.32476 | 35856 ft | 466 kts | 165° |
| 2026-05-07 08:02 | 44.77779 | -122.31036 | 36359 ft | 466 kts | 164° |
| 2026-05-07 08:02 | 44.74705 | -122.29603 | 36826 ft | 465 kts | 165° |
| 2026-05-07 08:02 | 44.71629 | -122.28171 | 37258 ft | 465 kts | 165° |
| 2026-05-07 08:02 | 44.68556 | -122.26742 | 37624 ft | 465 kts | 165° |
| 2026-05-07 08:03 | 44.65478 | -122.25315 | 37913 ft | 466 kts | 164° |
| 2026-05-07 08:03 | 44.62409 | -122.23894 | 38435 ft | 463 kts | 164° |
| 2026-05-07 08:03 | 44.59362 | -122.22484 | 38939 ft | 460 kts | 164° |
| 2026-05-07 08:03 | 44.56302 | -122.21072 | 39120 ft | 463 kts | 164° |
| 2026-05-07 08:04 | 44.53289 | -122.19683 | 39187 ft | 462 kts | 164° |
| 2026-05-07 08:04 | 44.47168 | -122.16855 | 39173 ft | 469 kts | 164° |
| 2026-05-07 08:05 | 44.40932 | -122.13998 | 39157 ft | 472 kts | 164° |
| 2026-05-07 08:05 | 44.34686 | -122.11139 | 39157 ft | 472 kts | 164° |
| 2026-05-07 08:06 | 44.28436 | -122.08283 | 39164 ft | 471 kts | 164° |
| 2026-05-07 08:06 | 44.22198 | -122.05433 | 39164 ft | 471 kts | 164° |
| 2026-05-07 08:07 | 44.16005 | -122.02611 | 39158 ft | 472 kts | 164° |
| 2026-05-07 08:07 | 44.09741 | -121.99765 | 39152 ft | 472 kts | 164° |
| 2026-05-07 08:08 | 44.03506 | -121.96936 | 39164 ft | 472 kts | 164° |
| 2026-05-07 08:08 | 43.97276 | -121.94114 | 39170 ft | 471 kts | 164° |
| 2026-05-07 08:09 | 43.91067 | -121.91301 | 39161 ft | 470 kts | 163° |
| 2026-05-07 08:09 | 43.84761 | -121.88845 | 39164 ft | 466 kts | 174° |
| 2026-05-07 08:10 | 43.78333 | -121.88141 | 39160 ft | 464 kts | 179° |
| 2026-05-07 08:10 | 43.71922 | -121.87529 | 39161 ft | 464 kts | 178° |
| 2026-05-07 08:11 | 43.65507 | -121.86913 | 39152 ft | 463 kts | 178° |
| 2026-05-07 08:11 | 43.59051 | -121.86281 | 39149 ft | 463 kts | 178° |
| 2026-05-07 08:12 | 43.52641 | -121.85646 | 39153 ft | 462 kts | 178° |
| 2026-05-07 08:12 | 43.46236 | -121.85031 | 39147 ft | 462 kts | 178° |
| 2026-05-07 08:13 | 43.39818 | -121.84424 | 39151 ft | 461 kts | 178° |
| 2026-05-07 08:13 | 43.33417 | -121.83812 | 39144 ft | 461 kts | 177° |
| 2026-05-07 08:14 | 43.27026 | -121.83206 | 39127 ft | 461 kts | 178° |
| 2026-05-07 08:14 | 43.20630 | -121.82600 | 39132 ft | 461 kts | 177° |
| 2026-05-07 08:15 | 43.14267 | -121.81995 | 39136 ft | 460 kts | 177° |
| 2026-05-07 08:15 | 43.07881 | -121.81383 | 39134 ft | 460 kts | 177° |
| 2026-05-07 08:16 | 43.01464 | -121.80776 | 39132 ft | 460 kts | 177° |
| 2026-05-07 08:16 | 42.95089 | -121.80180 | 39133 ft | 460 kts | 177° |
| 2026-05-07 08:17 | 42.88713 | -121.79576 | 39127 ft | 460 kts | 177° |
| 2026-05-07 08:17 | 42.82305 | -121.78975 | 39136 ft | 459 kts | 177° |
| 2026-05-07 08:18 | 42.75952 | -121.78386 | 39138 ft | 459 kts | 177° |
| 2026-05-07 08:18 | 42.69568 | -121.77790 | 39136 ft | 459 kts | 177° |
| 2026-05-07 08:19 | 42.63225 | -121.77193 | 39135 ft | 459 kts | 177° |
| 2026-05-07 08:19 | 42.56843 | -121.76594 | 39131 ft | 459 kts | 177° |
| 2026-05-07 08:20 | 42.50487 | -121.76004 | 39132 ft | 459 kts | 177° |
| 2026-05-07 08:20 | 42.44108 | -121.75417 | 39134 ft | 459 kts | 177° |
| 2026-05-07 08:21 | 42.37721 | -121.74824 | 39138 ft | 458 kts | 177° |
| 2026-05-07 08:21 | 42.31382 | -121.74241 | 39139 ft | 458 kts | 177° |
| 2026-05-07 08:22 | 42.24999 | -121.73652 | 39135 ft | 458 kts | 177° |
| 2026-05-07 08:22 | 42.18672 | -121.73070 | 39225 ft | 458 kts | 177° |
| 2026-05-07 08:23 | 42.12304 | -121.72585 | 39236 ft | 457 kts | 179° |
| 2026-05-07 08:23 | 42.05934 | -121.72542 | 39237 ft | 456 kts | 181° |
| 2026-05-07 08:24 | 41.99622 | -121.72654 | 39218 ft | 456 kts | 181° |
| 2026-05-07 08:24 | 41.93269 | -121.72688 | 39199 ft | 456 kts | 180° |
| 2026-05-07 08:25 | 41.86921 | -121.72638 | 39179 ft | 456 kts | 180° |
| 2026-05-07 08:25 | 41.80571 | -121.72576 | 39166 ft | 456 kts | 180° |
| 2026-05-07 08:26 | 41.71096 | -121.72529 | 39172 ft | 455 kts | 180° |
| 2026-05-07 08:26 | 41.64755 | -121.72515 | 39175 ft | 456 kts | 180° |
| 2026-05-07 08:27 | 41.58409 | -121.72495 | 39181 ft | 456 kts | 180° |
| 2026-05-07 08:27 | 41.52065 | -121.72454 | 39185 ft | 456 kts | 180° |
| 2026-05-07 08:28 | 41.45705 | -121.72423 | 39193 ft | 457 kts | 180° |
| 2026-05-07 08:28 | 41.39321 | -121.72402 | 39194 ft | 457 kts | 180° |
| 2026-05-07 08:29 | 41.32951 | -121.72365 | 39190 ft | 458 kts | 180° |
| 2026-05-07 08:29 | 41.26602 | -121.72329 | 39182 ft | 458 kts | 180° |
| 2026-05-07 08:30 | 41.20211 | -121.72293 | 39178 ft | 457 kts | 180° |
| 2026-05-07 08:30 | 41.13875 | -121.72264 | 39177 ft | 457 kts | 180° |
| 2026-05-07 08:31 | 41.07544 | -121.72242 | 39177 ft | 456 kts | 180° |
| 2026-05-07 08:31 | 41.01183 | -121.72221 | 39171 ft | 456 kts | 180° |
| 2026-05-07 08:32 | 40.94843 | -121.72185 | 39172 ft | 456 kts | 180° |
| 2026-05-07 08:32 | 40.88502 | -121.72164 | 39155 ft | 456 kts | 179° |
| 2026-05-07 08:33 | 40.82167 | -121.72136 | 39166 ft | 455 kts | 179° |
| 2026-05-07 08:33 | 40.75812 | -121.72094 | 39168 ft | 455 kts | 179° |
| 2026-05-07 08:34 | 40.69502 | -121.72058 | 38417 ft | 462 kts | 179° |
| 2026-05-07 08:34 | 40.66234 | -121.72045 | 37222 ft | 475 kts | 179° |
| 2026-05-07 08:34 | 40.62932 | -121.72034 | 36506 ft | 475 kts | 179° |
| 2026-05-07 08:35 | 40.60698 | -121.72026 | 35996 ft | 476 kts | 179° |
| 2026-05-07 08:35 | 40.57379 | -121.72014 | 35205 ft | 477 kts | 179° |
| 2026-05-07 08:35 | 40.54074 | -121.72003 | 34563 ft | 476 kts | 179° |
| 2026-05-07 08:35 | 40.50764 | -121.71985 | 34013 ft | 472 kts | 179° |
| 2026-05-07 08:36 | 40.47531 | -121.71967 | 33428 ft | 468 kts | 179° |
| 2026-05-07 08:36 | 40.44279 | -121.71950 | 32850 ft | 465 kts | 179° |
| 2026-05-07 08:36 | 40.41054 | -121.71849 | 32269 ft | 461 kts | 177° |
| 2026-05-07 08:36 | 40.37855 | -121.71621 | 31704 ft | 457 kts | 176° |
| 2026-05-07 08:37 | 40.34697 | -121.71316 | 31144 ft | 453 kts | 175° |
| 2026-05-07 08:37 | 40.31566 | -121.70979 | 30582 ft | 449 kts | 175° |
| 2026-05-07 08:37 | 40.28459 | -121.70647 | 29987 ft | 446 kts | 175° |
| 2026-05-07 08:37 | 40.25397 | -121.70339 | 29354 ft | 442 kts | 175° |
| 2026-05-07 08:38 | 40.22325 | -121.70056 | 28750 ft | 438 kts | 176° |
| 2026-05-07 08:38 | 40.19310 | -121.69799 | 28162 ft | 434 kts | 176° |
| 2026-05-07 08:38 | 40.16299 | -121.69553 | 27587 ft | 430 kts | 176° |
| 2026-05-07 08:38 | 40.13314 | -121.69312 | 27023 ft | 426 kts | 176° |
| 2026-05-07 08:39 | 40.10396 | -121.69070 | 26481 ft | 423 kts | 176° |
| 2026-05-07 08:39 | 40.07461 | -121.68821 | 25966 ft | 419 kts | 176° |
| 2026-05-07 08:39 | 40.04577 | -121.68571 | 25480 ft | 416 kts | 176° |
| 2026-05-07 08:39 | 40.01686 | -121.68320 | 25004 ft | 413 kts | 176° |
| 2026-05-07 08:40 | 39.98829 | -121.68073 | 24568 ft | 409 kts | 176° |
| 2026-05-07 08:40 | 39.95996 | -121.67832 | 24123 ft | 406 kts | 176° |
| 2026-05-07 08:40 | 39.93188 | -121.67596 | 23658 ft | 403 kts | 176° |
| 2026-05-07 08:40 | 39.90428 | -121.67362 | 23116 ft | 400 kts | 177° |
| 2026-05-07 08:41 | 39.87660 | -121.67126 | 22602 ft | 396 kts | 177° |
| 2026-05-07 08:41 | 39.84919 | -121.66894 | 22078 ft | 393 kts | 177° |
| 2026-05-07 08:41 | 39.82205 | -121.66664 | 21566 ft | 389 kts | 177° |
| 2026-05-07 08:41 | 39.79519 | -121.66437 | 21070 ft | 385 kts | 177° |
| 2026-05-07 08:42 | 39.76863 | -121.66210 | 20554 ft | 381 kts | 177° |
| 2026-05-07 08:42 | 39.74230 | -121.65983 | 20040 ft | 377 kts | 178° |
| 2026-05-07 08:42 | 39.71623 | -121.65758 | 19531 ft | 374 kts | 178° |
| 2026-05-07 08:42 | 39.69034 | -121.65537 | 19034 ft | 370 kts | 178° |
| 2026-05-07 08:43 | 39.66476 | -121.65318 | 18555 ft | 367 kts | 178° |
| 2026-05-07 08:43 | 39.63939 | -121.65103 | 18007 ft | 364 kts | 178° |
| 2026-05-07 08:43 | 39.61423 | -121.64890 | 17465 ft | 360 kts | 178° |
| 2026-05-07 08:43 | 39.58937 | -121.64680 | 16918 ft | 356 kts | 178° |
| 2026-05-07 08:44 | 39.56474 | -121.64475 | 16374 ft | 353 kts | 178° |
| 2026-05-07 08:44 | 39.54033 | -121.64273 | 15841 ft | 350 kts | 178° |
| 2026-05-07 08:44 | 39.51611 | -121.64069 | 15327 ft | 347 kts | 178° |
| 2026-05-07 08:44 | 39.49213 | -121.63865 | 14816 ft | 344 kts | 178° |
| 2026-05-07 08:45 | 39.46835 | -121.63662 | 14325 ft | 341 kts | 178° |
| 2026-05-07 08:45 | 39.44476 | -121.63464 | 13812 ft | 338 kts | 178° |
| 2026-05-07 08:45 | 39.42134 | -121.63270 | 13268 ft | 335 kts | 178° |
| 2026-05-07 08:45 | 39.39810 | -121.63076 | 12744 ft | 332 kts | 178° |
| 2026-05-07 08:46 | 39.37514 | -121.62882 | 12235 ft | 329 kts | 178° |
| 2026-05-07 08:46 | 39.35236 | -121.62690 | 11723 ft | 326 kts | 178° |
| 2026-05-07 08:46 | 39.32990 | -121.62500 | 11343 ft | 319 kts | 178° |
| 2026-05-07 08:46 | 39.30838 | -121.62319 | 11192 ft | 306 kts | 178° |
| 2026-05-07 08:47 | 39.28734 | -121.62145 | 10865 ft | 300 kts | 178° |
| 2026-05-07 08:47 | 39.26657 | -121.61972 | 10470 ft | 298 kts | 178° |
| 2026-05-07 08:47 | 39.24599 | -121.61797 | 10092 ft | 295 kts | 177° |
| 2026-05-07 08:47 | 39.22558 | -121.61626 | 9669 ft | 293 kts | 177° |
| 2026-05-07 08:48 | 39.20528 | -121.61458 | 9231 ft | 291 kts | 177° |
| 2026-05-07 08:48 | 39.18506 | -121.61291 | 8778 ft | 291 kts | 178° |
| 2026-05-07 08:48 | 39.16489 | -121.61124 | 8342 ft | 290 kts | 178° |
| 2026-05-07 08:48 | 39.14481 | -121.60956 | 7894 ft | 289 kts | 177° |
| 2026-05-07 08:49 | 39.12476 | -121.60791 | 7473 ft | 288 kts | 178° |
| 2026-05-07 08:49 | 39.10478 | -121.60626 | 7046 ft | 288 kts | 178° |
| 2026-05-07 08:49 | 39.08478 | -121.60461 | 6637 ft | 287 kts | 178° |
| 2026-05-07 08:49 | 39.06505 | -121.60297 | 6209 ft | 286 kts | 178° |
| 2026-05-07 08:50 | 39.04515 | -121.60132 | 5772 ft | 286 kts | 177° |
| 2026-05-07 08:50 | 39.02537 | -121.59885 | 5342 ft | 286 kts | 172° |
| 2026-05-07 08:50 | 39.00569 | -121.59613 | 5027 ft | 280 kts | 178° |
| 2026-05-07 08:50 | 38.98668 | -121.59613 | 5005 ft | 264 kts | 182° |
| 2026-05-07 08:51 | 38.96885 | -121.59666 | 4963 ft | 250 kts | 181° |
| 2026-05-07 08:51 | 38.95161 | -121.59702 | 4713 ft | 244 kts | 181° |
| 2026-05-07 08:51 | 38.93470 | -121.59730 | 4409 ft | 241 kts | 181° |
| 2026-05-07 08:51 | 38.91820 | -121.59757 | 4091 ft | 239 kts | 181° |
| 2026-05-07 08:52 | 38.90160 | -121.59785 | 3782 ft | 237 kts | 181° |
| 2026-05-07 08:52 | 38.88528 | -121.59812 | 3495 ft | 229 kts | 181° |
| 2026-05-07 08:52 | 38.86978 | -121.59838 | 3183 ft | 217 kts | 181° |
| 2026-05-07 08:52 | 38.85540 | -121.59862 | 2907 ft | 197 kts | 181° |
| 2026-05-07 08:53 | 38.84220 | -121.59884 | 2668 ft | 181 kts | 181° |
| 2026-05-07 08:53 | 38.82979 | -121.59905 | 2434 ft | 173 kts | 181° |
| 2026-05-07 08:53 | 38.81844 | -121.59923 | 2237 ft | 155 kts | 180° |
| 2026-05-07 08:53 | 38.80822 | -121.59941 | 2037 ft | 137 kts | 180° |
| 2026-05-07 08:54 | 38.79928 | -121.59956 | 1858 ft | 126 kts | 180° |
| 2026-05-07 08:54 | 38.79069 | -121.59970 | 1693 ft | 121 kts | 180° |
| 2026-05-07 08:54 | 38.78232 | -121.59984 | 1526 ft | 119 kts | 181° |
| 2026-05-07 08:54 | 38.77404 | -121.59998 | 1370 ft | 118 kts | 180° |
| 2026-05-07 08:55 | 38.76578 | -121.60011 | 1208 ft | 118 kts | 180° |
| 2026-05-07 08:55 | 38.75752 | -121.60025 | 1052 ft | 119 kts | 180° |
| 2026-05-07 08:55 | 38.74927 | -121.60038 | 895 ft | 118 kts | 180° |
| 2026-05-07 08:55 | 38.74102 | -121.60053 | 726 ft | 119 kts | 179° |
| 2026-05-07 08:56 | 38.73277 | -121.60067 | 584 ft | 118 kts | 179° |
| 2026-05-07 08:56 | 38.72452 | -121.60087 | 426 ft | 118 kts | 180° |
| 2026-05-07 08:56 | 38.71633 | -121.60101 | 268 ft | 118 kts | 177° |
| 2026-05-07 08:56 | 38.70814 | -121.60112 | 108 ft | 118 kts | 178° |
| 2026-05-07 08:57 | 38.70046 | -121.60121 | 38 ft | 99 kts | 179° |
| 2026-05-07 08:57 | 38.69527 | -121.60124 | 30 ft | 34 kts | 178° |
| 2026-05-07 08:57 | 38.69435 | -121.60058 | 30 ft | 13 kts | 144° |
| 2026-05-07 08:57 | 38.69347 | -121.59992 | 31 ft | 15 kts | 150° |
| 2026-05-07 08:58 | 38.69262 | -121.59919 | 34 ft | 13 kts | 117° |
| 2026-05-07 08:58 | 38.69320 | -121.59870 | 33 ft | 13 kts | 1° |
| 2026-05-07 08:58 | 38.69431 | -121.59868 | 32 ft | 18 kts | 0° |
| 2026-05-07 08:58 | 38.69568 | -121.59866 | 34 ft | 21 kts | 1° |
| 2026-05-07 08:59 | 38.69685 | -121.59847 | 34 ft | 14 kts | 37° |
| 2026-05-07 08:59 | 38.69702 | -121.59714 | 34 ft | 17 kts | 90° |
| 2026-05-07 08:59 | 38.69700 | -121.59546 | 35 ft | 21 kts | 91° |
| 2026-05-07 08:59 | 38.69698 | -121.59344 | 34 ft | 24 kts | 90° |
| 2026-05-07 09:00 | 38.69696 | -121.59112 | 34 ft | 28 kts | 91° |
| 2026-05-07 09:00 | 38.69691 | -121.58856 | 34 ft | 30 kts | 90° |
| 2026-05-07 09:00 | 38.69680 | -121.58641 | 32 ft | 16 kts | 121° |
| 2026-05-07 09:00 | 38.69616 | -121.58569 | 31 ft | 12 kts | 96° |
| 2026-05-07 09:01 | 38.69578 | -121.58479 | 30 ft | 9 kts | 179° |
| 2026-05-07 09:01 | 38.69544 | -121.58479 | 29 ft | 1 kts | 180° |